Latest Coastal Weather Observations for St Lawrence

IDQ60701

Issued at 11:31 pm EST Monday 25 May 2015 (issued every 10 minutes, with the page automatically refreshed every 10 minutes)

About coastal observations | Map of coastal stations | Coastal observations for QLD | Marine services | Other Formats
Station Details ID: 033210 Name: ST LAWRENCE Lat: -22.35 Lon: 149.52 Height: 9.19 m
Data from the previous 72 hours. | See also: Recent months at St Lawrence
Date/Time
EST
Temp

°C
Wind Pressure Rain
since 9am
mm
Weather Cloud Vis
km
Sea
Height
m
Swell
Dir
 
Speed
knots
Gust
knots
hPa Trend Height
m
Period
s
Dir
25/11:30pm 17.0 S 5 7 1025.2 - 0.2 - - - - - - -
25/11:00pm 16.9 S 4 5 1025.4 - 0.2 - - - - - - -
25/10:30pm 17.3 S 3 5 1025.6 - 0.2 - - - - - - -
25/10:00pm 18.1 S 4 6 1025.9 - 0.2 - - - - - - -
25/09:30pm 18.5 S 4 6 1025.9 - 0.2 - - - - - - -
25/09:00pm 18.8 SSE 4 5 1025.6 - 0.2 - - - - - - -
25/08:30pm 19.2 SSE 4 5 1025.3 - 0.2 - - - - - - -
25/08:00pm 19.8 SSE 3 4 1025.1 - 0.2 - - - - - - -
25/07:30pm 20.9 SE 5 8 1024.9 - 0.2 - - - - - - -
25/07:00pm 21.5 ESE 4 7 1024.3 - 0.2 - - - - - - -
25/06:30pm 21.5 ESE 5 6 1024.2 - 0.2 - - - - - - -
25/06:00pm 21.6 SE 4 6 1024.2 - 0.2 - - - - - - -
25/05:30pm 22.3 ESE 4 5 1023.9 - 0.2 - - - - - - -
25/05:00pm 22.6 ESE 5 7 1023.6 - 0.2 - - - - - - -
25/04:30pm 22.9 SE 4 5 1023.7 - 0.2 - - - - - - -
25/04:00pm 23.0 SE 5 7 1024.0 - 0.2 - - - - - - -
25/03:30pm 22.6 ESE 7 11 1023.8 - 0.2 - - - - - - -
25/03:00pm 23.1 SE 10 16 1023.6 - 0.2 Recent precip. - - - - - -
25/02:30pm 22.3 SSE 7 10 1023.8 - 0.2 - - - - - - -
25/02:00pm 20.4 ESE 12 20 1024.4 - 0.0 - - - - - - -
25/01:30pm 24.8 E 9 15 1023.9 - 0.0 - - - - - - -
25/01:00pm 25.9 ESE 7 15 1024.0 - 0.0 - - - - - - -
25/12:30pm 25.7 ESE 7 13 1024.5 - 0.0 - - - - - - -
25/12:00pm 24.8 SE 9 14 1025.1 - 0.0 - - - - - - -
25/11:30am 24.1 SE 8 14 1025.5 - 0.0 - - - - - - -
25/11:00am 23.4 SE 7 11 1025.9 - 0.0 - - - - - - -
25/10:30am 22.5 SSE 10 16 1026.5 - 0.0 - - - - - - -
25/10:00am 22.3 SSE 9 15 1026.9 - 0.0 - - - - - - -
25/09:30am 21.1 SSE 9 13 1027.0 - 0.0 - - - - - - -
25/08:00am 18.6 SSE 7 10 1026.2 - 0.0 - - - - - - -
25/07:30am 17.2 S 8 12 1026.1 - 0.0 - - - - - - -
25/07:00am 16.5 S 7 10 1025.6 - 0.0 - - - - - - -
25/06:30am 16.3 S 7 9 1025.8 - 0.0 - - - - - - -
25/06:00am 16.0 S 7 9 1025.5 - 0.0 - - - - - - -
25/05:30am 16.1 S 6 7 1025.2 - 0.0 - - - - - - -
25/05:00am 16.2 S 5 7 1025.1 - 0.0 - - - - - - -
25/04:30am 16.3 S 7 10 1024.8 - 0.0 - - - - - - -
25/04:00am 15.5 S 7 10 1024.7 - 0.0 - - - - - - -
25/03:30am 15.5 S 6 9 1024.9 - 0.0 - - - - - - -
25/03:00am 16.2 S 7 10 1025.2 - 0.0 - - - - - - -
25/02:30am 16.8 S 6 9 1025.2 - 0.0 - - - - - - -
25/02:00am 16.9 S 7 11 1025.1 - 0.0 - - - - - - -
25/01:30am 16.7 S 6 8 1025.3 - 0.0 - - - - - - -
25/01:00am 17.0 SSE 6 8 1025.5 - 0.0 - - - - - - -
25/12:30am 17.3 S 6 8 1026.0 - 0.0 - - - - - - -
 
Date/Time
EST
Temp

°C
Wind Pressure Rain
since 9am
mm
Weather Cloud Vis
km
Sea
Height
m
Swell
Dir
 
Speed
knots
Gust
knots
hPa Trend Height
m
Period
s
Dir
24/11:30pm 17.8 S 6 7 1025.7 - 0.0 - - - - - - -
24/11:00pm 18.0 S 5 6 1025.7 - 0.0 - - - - - - -
24/10:30pm 17.9 S 3 5 1025.7 - 0.0 - - - - - - -
24/10:00pm 17.9 S 3 4 1025.5 - 0.0 - - - - - - -
24/09:30pm 18.9 SSE 4 5 1025.5 - 0.0 - - - - - - -
24/09:00pm 19.2 SSE 5 7 1025.5 - 0.0 - - - - - - -
24/08:30pm 19.6 SSE 5 6 1025.8 - 0.0 - - - - - - -
24/08:00pm 19.9 SSE 4 5 1025.6 - 0.0 - - - - - - -
24/07:30pm 20.5 SE 3 6 1025.3 - 0.0 - - - - - - -
24/07:00pm 21.0 SE 4 5 1024.9 - 0.0 - - - - - - -
24/06:30pm 21.6 ESE 5 8 1024.6 - 0.0 - - - - - - -
24/06:00pm 22.1 ESE 4 6 1024.0 - 0.0 - - - - - - -
24/05:30pm 22.9 ESE 7 13 1023.6 - 0.0 - - - - - - -
24/05:00pm 23.4 E 8 13 1023.1 - 0.0 - - - - - - -
24/04:30pm 24.5 ESE 8 15 1022.7 - 0.0 - - - - - - -
24/04:00pm 25.1 E 9 14 1022.4 - 0.0 - - - - - - -
24/03:30pm 25.2 E 8 15 1022.2 - 0.0 - - - - - - -
24/03:00pm 25.6 ESE 9 16 1022.2 - 0.0 - - - - - - -
24/02:30pm 25.7 E 10 16 1022.2 - 0.0 - - - - - - -
24/02:00pm 25.6 E 9 16 1022.2 - 0.0 - - - - - - -
24/01:30pm 25.4 ESE 10 16 1022.2 - 0.0 - - - - - - -
24/01:00pm 25.1 ESE 9 14 1022.6 - 0.0 - - - - - - -
24/12:30pm 24.5 ESE 11 17 1023.0 - 0.0 - - - - - - -
24/12:00pm 24.4 ESE 10 16 1023.4 - 0.0 - - - - - - -
24/11:30am 23.8 ESE 11 18 1023.8 - 0.0 - - - - - - -
24/11:00am 24.3 ESE 11 17 1024.0 - 0.0 - - - - - - -
24/10:30am 23.4 ESE 9 14 1024.2 - 0.0 - - - - - - -
24/10:00am 22.6 SE 8 13 1024.5 - 0.0 - - - - - - -
24/09:30am 21.6 SSE 7 11 1024.7 - 0.0 - - - - - - -
24/09:00am 20.0 SSE 8 12 1024.5 - 0.0 - - - - - - -
24/08:30am 18.6 S 6 10 1024.3 - 0.0 - - - - - - -
24/08:00am 18.0 S 5 9 1024.2 - 0.0 - - - - - - -
24/07:30am 17.3 S 5 8 1024.0 - 0.0 - - - - - - -
24/07:00am 16.9 S 6 8 1023.4 - 0.0 - - - - - - -
24/06:30am 16.7 S 5 8 1023.0 - 0.0 - - - - - - -
24/06:00am 16.7 S 5 8 1022.7 - 0.0 - - - - - - -
24/05:30am 16.7 S 5 9 1022.5 - 0.0 - - - - - - -
24/05:00am 16.4 S 5 10 1022.2 - 0.0 - - - - - - -
24/04:30am 16.3 S 6 10 1022.2 - 0.0 - - - - - - -
24/04:00am 16.2 S 6 8 1022.0 - 0.0 - - - - - - -
24/03:30am 16.3 S 6 10 1021.8 - 0.0 - - - - - - -
24/03:00am 16.4 S 6 9 1021.7 - 0.0 - - - - - - -
24/02:30am 16.4 S 5 9 1021.7 - 0.0 - - - - - - -
24/02:00am 16.3 S 5 7 1021.5 - 0.0 - - - - - - -
24/01:30am 16.5 S 5 6 1021.9 - 0.0 - - - - - - -
24/01:00am 17.4 S 4 6 1021.8 - 0.0 - - - - - - -
24/12:30am 17.8 S 5 7 1021.7 - 0.0 - - - - - - -
24/12:00am 17.7 S 4 6 1021.9 - 0.0 - - - - - - -
 
Date/Time
EST
Temp

°C
Wind Pressure Rain
since 9am
mm
Weather Cloud Vis
km
Sea
Height
m
Swell
Dir
 
Speed
knots
Gust
knots
hPa Trend Height
m
Period
s
Dir
23/11:30pm 17.6 S 3 5 1021.9 - 0.0 - - - - - - -
23/11:00pm 17.3 CALM 0 3 1022.1 - 0.0 - - - - - - -
23/10:30pm 16.9 CALM 0 3 1022.1 - 0.0 - - - - - - -
23/10:00pm 16.6 S 1 4 1022.1 - 0.0 - - - - - - -
23/09:30pm 16.7 S 4 5 1021.8 - 0.0 - - - - - - -
23/09:00pm 17.3 SE 2 3 1022.2 - 0.0 - - - - - - -
23/08:30pm 17.4 SE 3 3 1022.2 - 0.0 - - - - - - -
23/08:00pm 18.4 SSE 3 5 1022.1 - 0.0 - - - - - - -
23/07:30pm 19.0 SE 4 5 1021.9 - 0.0 - - - - - - -
23/07:00pm 19.0 SE 4 5 1021.7 - 0.0 - - - - - - -
23/06:30pm 19.2 ESE 4 4 1020.9 - 0.0 - - - - - - -
23/06:00pm 20.3 ESE 4 6 1020.9 - 0.0 - - - - - - -
23/05:30pm 21.2 E 5 8 1020.6 - 0.0 - - - - - - -
23/05:00pm 22.4 ESE 8 12 1020.4 - 0.0 - - - - - - -
23/04:30pm 23.2 ESE 6 12 1020.3 - 0.0 - - - - - - -
23/04:00pm 23.8 SE 7 15 1020.0 - 0.0 - - - - - - -
23/03:30pm 23.1 SE 9 17 1019.9 - 0.0 - - - - - - -
23/03:00pm 23.9 ESE 7 10 1019.8 - 0.0 - - - - - - -
23/02:30pm 23.7 SE 8 14 1019.7 - 0.0 - - - - - - -
23/02:00pm 23.6 SE 5 12 1019.8 - 0.0 - - - - - - -
23/01:30pm 23.4 ESE 7 12 1020.1 - 0.0 - - - - - - -
23/01:00pm 22.8 SE 7 14 1020.5 - 0.0 - - - - - - -
23/12:30pm 22.4 E 7 11 1021.1 - 0.0 - - - - - - -
23/12:00pm 21.6 ESE 7 11 1021.6 - 0.0 - - - - - - -
23/11:30am 21.5 SE 7 11 1022.0 - 0.0 - - - - - - -
23/11:00am 20.3 SSE 7 14 1022.4 - 0.0 - - - - - - -
23/10:30am 19.9 SE 8 12 1022.8 - 0.0 - - - - - - -
23/10:00am 19.0 S 8 12 1022.8 - 0.0 - - - - - - -
23/09:30am 17.9 SSE 10 15 1022.7 - 0.0 - - - - - - -
23/09:00am 17.3 SSE 9 13 1022.7 - 0.0 - - - - - - -
23/08:30am 16.4 S 9 15 1022.5 - 0.0 - - - - - - -
23/08:00am 14.8 S 8 12 1022.2 - 0.0 - - - - - - -
23/07:30am 13.5 S 5 8 1021.8 - 0.0 - - - - - - -
23/07:00am 12.5 S 5 8 1021.5 - 0.0 - - - - - - -
23/06:30am 11.8 S 5 7 1021.4 - 0.0 - - - - - - -
23/06:00am 11.6 S 4 5 1021.2 - 0.0 - - - - - - -
23/05:30am 11.9 S 3 5 1020.8 - 0.0 - - - - - - -
23/05:00am 11.4 S 4 6 1020.4 - 0.0 - - - - - - -
23/04:30am 11.8 S 4 6 1020.2 - 0.0 - - - - - - -
23/04:00am 12.2 SSW 5 8 1020.3 - 0.0 - - - - - - -
23/03:30am 10.5 SSW 3 5 1020.5 - 0.0 - - - - - - -
23/03:00am 10.6 SSW 3 4 1020.6 - 0.0 - - - - - - -
23/02:30am 11.7 SW 3 4 1020.8 - 0.0 - - - - - - -
23/02:00am 12.9 SSW 3 7 1021.0 - 0.0 - - - - - - -
23/01:30am 13.4 SSW 7 12 1021.3 - 0.0 - - - - - - -
23/01:00am 13.3 S 6 9 1021.5 - 0.0 - - - - - - -
23/12:30am 13.9 S 6 9 1021.7 - 0.0 - - - - - - -
23/12:00am 14.4 S 8 12 1021.7 - 0.0 - - - - - - -

Other Formats:

Comma delimited format used in spreadsheet applications
http://www.bom.gov.au/fwo/IDQ60701/IDQ60701.95369.axf

JavaScript Object Notation format (JSON) in row-major order
http://www.bom.gov.au/fwo/IDQ60701/IDQ60701.95369.json